Главная страница
METAR-TAF:

METAR-TAF

Аэропорты :

Нуакшот, Мавритания

широта: 18-18-36N, долгота: 015-58-11W, высота над уровнем моря: 3 м

Текущие метеонаблюдения

Эта сводка был подготовлена 51 минут назад, в 20:00 UTC
Ветер 8 Узел от северо-западный
Температура 21°C
Влажность 60%
Давление 1015 hPa
Видимость 10 км и более
Нет облачности ниже 1500 м, и нет кучево-дождевой облачности

METAR: GQNO 122000Z 32008KT CAVOK 21/13 Q1015 NOSIG

Время: 20:51 (20:51 UTC)

Прогноз

Эта сводка был подготовлена 3 часа и 51 минут назад, в 17:00 UTC
Прогноз действительный с 12-го 18 UTC до 13-го 24 UTC
Ветер 10 Узел от северный
Видимость: 8000 м
изменения
С 13-го 07 UTC до 13-го 10 UTC
Ветер 14 Узел от восточно-северо-восточный

TAF: GQNO 121700Z 1218/1324 36010KT 8000 NSC BECMG 1307/1310 07014KT

Метеонаблюдения и прогнозы для более 4000 аэропортов (сводки METAR и TAF).

Имеющиеся станции представлены на карте желтыми и красными точками.

Чтобы увидеть название станции, наведите на нее мышь.

Затем щелкните, чтобы увидеть метеонаблюдения и метеопрогнозы.

Управление картой: чтобы увеличить масштаб, щелкните зеленые кнопки с черным крестиком; чтобы уменьшить масштаб, щелкните зеленую кнопку с тире; для просмотра соседних карт щелкайте зеленые стрелки.


METAR-TAF: